Time;durP1;ratioP1;P1;durP2;ratioP2;P2;SDS_P1;SDS_P2;PMS_P1;PMS_P2;Temp;Humidity;BMP_temperature;BMP_pressure;BME280_temperature;BME280_humidity;BME280_pressure;Samples;Min_cycle;Max_cycle;Signal;HPM_P1;HPM_P2
2023/03/22 00:26:22;;;;;;;11.30;8.88;;;16.10;48.70;;;;;;5013573;28;20718;-50
2023/03/22 00:28:48;;;;;;;11.30;9.37;;;16.10;48.80;;;;;;5013786;28;20273;-53
2023/03/22 00:31:14;;;;;;;9.33;7.80;;;16.10;48.90;;;;;;5014197;28;20174;-50
2023/03/22 00:33:40;;;;;;;9.53;8.20;;;16.10;48.70;;;;;;5014006;28;20254;-53
2023/03/22 00:36:09;;;;;;;9.10;8.20;;;16.20;48.50;;;;;;5013944;28;20233;-51
2023/03/22 00:38:38;;;;;;;10.45;9.35;;;16.20;48.40;;;;;;5013585;28;20562;-50
2023/03/22 00:41:24;;;;;;;12.60;10.77;;;16.20;48.30;;;;;;5013923;28;20183;-52
2023/03/22 00:43:50;;;;;;;11.55;10.27;;;16.30;48.40;;;;;;5013501;28;20186;-53
2023/03/22 00:46:18;;;;;;;10.35;9.02;;;16.30;48.40;;;;;;5013232;28;20186;-50
2023/03/22 00:48:44;;;;;;;12.00;10.13;;;16.30;48.40;;;;;;5013438;28;20202;-53
2023/03/22 00:51:11;;;;;;;13.87;10.70;;;16.30;48.50;;;;;;5013430;28;20209;-53
2023/03/22 00:53:38;;;;;;;12.45;9.18;;;16.20;48.50;;;;;;5013474;28;20401;-51
2023/03/22 00:56:05;;;;;;;14.55;9.75;;;16.20;48.60;;;;;;5013211;28;20183;-51
2023/03/22 00:58:31;;;;;;;11.57;9.45;;;16.10;48.70;;;;;;5013187;28;20193;-53
2023/03/22 01:00:57;;;;;;;12.43;9.70;;;16.10;48.80;;;;;;5013154;28;20183;-51
2023/03/22 01:03:23;;;;;;;14.80;10.63;;;16.10;48.90;;;;;;5013325;28;20186;-51
2023/03/22 01:05:51;;;;;;;14.32;10.63;;;16.00;48.90;;;;;;5013190;28;20471;-53
2023/03/22 01:08:17;;;;;;;11.63;9.80;;;16.00;48.90;;;;;;5012863;28;20202;-53
2023/03/22 01:10:43;;;;;;;10.47;8.17;;;16.00;49.20;;;;;;5013066;28;20198;-50
2023/03/22 01:13:10;;;;;;;18.10;11.90;;;15.90;48.90;;;;;;5012843;28;20175;-51
2023/03/22 01:15:36;;;;;;;12.80;10.45;;;16.00;48.80;;;;;;5013040;28;20174;-53
2023/03/22 01:18:03;;;;;;;9.87;8.83;;;16.00;48.90;;;;;;5011456;28;20195;-51
2023/03/22 01:20:29;;;;;;;12.55;9.63;;;16.00;49.00;;;;;;5013257;28;20409;-51
2023/03/22 01:22:55;;;;;;;12.80;9.07;;;15.90;48.80;;;;;;5012991;28;20182;-51
2023/03/22 01:25:21;;;;;;;16.90;9.10;;;15.90;48.80;;;;;;5012721;28;20182;-51
2023/03/22 01:27:47;;;;;;;10.97;9.07;;;15.90;48.70;;;;;;5012807;28;20468;-51
2023/03/22 01:30:13;;;;;;;9.40;8.50;;;15.80;48.30;;;;;;5012952;28;20454;-51
2023/03/22 01:32:39;;;;;;;9.68;7.78;;;15.80;48.00;;;;;;5012927;28;20175;-50
2023/03/22 01:35:05;;;;;;;14.73;9.32;;;15.70;47.90;;;;;;5012867;28;20241;-53
2023/03/22 01:37:31;;;;;;;10.73;8.98;;;15.60;47.70;;;;;;5012477;28;20528;-51
2023/03/22 01:39:57;;;;;;;12.07;10.80;;;15.60;47.90;;;;;;5012603;28;20237;-51
2023/03/22 01:42:24;;;;;;;9.90;8.45;;;15.50;47.90;;;;;;5012676;28;20402;-52
2023/03/22 01:45:12;;;;;;;12.25;8.38;;;15.40;47.70;;;;;;5012517;28;20557;-52
2023/03/22 01:47:38;;;;;;;10.20;8.98;;;15.40;47.50;;;;;;5012328;28;20201;-53
2023/03/22 01:50:05;;;;;;;10.55;9.40;;;15.30;47.70;;;;;;5012545;28;20233;-53
2023/03/22 01:52:31;;;;;;;9.63;8.40;;;15.20;47.70;;;;;;5012498;28;20209;-50
2023/03/22 01:54:56;;;;;;;9.00;7.93;;;15.20;48.00;;;;;;5012244;28;20202;-52
2023/03/22 01:57:23;;;;;;;13.87;9.00;;;15.10;47.70;;;;;;5012195;28;20797;-52
2023/03/22 01:59:49;;;;;;;16.83;10.45;;;15.10;47.60;;;;;;5012438;28;20170;-53
2023/03/22 02:02:18;;;;;;;11.93;8.97;;;15.00;47.40;;;;;;5012431;28;20178;-49
2023/03/22 02:04:49;;;;;;;12.35;7.95;;;14.90;47.70;;;;;;5012424;28;20417;-50
2023/03/22 02:07:26;;;;;;;11.00;8.52;;;14.80;47.80;;;;;;5012089;28;20260;-52
2023/03/22 02:09:54;;;;;;;10.85;7.28;;;14.80;47.40;;;;;;5012489;28;20186;-51
2023/03/22 02:12:44;;;;;;;11.98;9.63;;;14.70;47.20;;;;;;5012234;28;20726;-51
2023/03/22 02:15:48;;;;;;;10.50;7.85;;;14.60;47.20;;;;;;5012240;28;20163;-50
2023/03/22 02:18:53;;;;;;;9.52;8.05;;;14.50;47.60;;;;;;5007414;28;20198;-52
2023/03/22 02:21:28;;;;;;;10.73;8.00;;;14.90;47.80;;;;;;5012505;28;20316;-52
2023/03/22 02:24:05;;;;;;;8.48;7.60;;;14.40;47.30;;;;;;5012135;28;20170;-52
2023/03/22 02:27:03;;;;;;;10.98;8.68;;;14.30;47.10;;;;;;5014880;28;20186;-51
2023/03/22 02:30:04;;;;;;;8.98;7.85;;;14.30;46.90;;;;;;5016061;28;20860;-52
2023/03/22 02:32:48;;;;;;;14.25;9.00;;;14.20;46.80;;;;;;5015933;28;20210;-52
2023/03/22 02:35:38;;;;;;;8.32;7.40;;;14.10;46.70;;;;;;5016252;28;20202;-49
2023/03/22 02:38:31;;;;;;;11.57;8.30;;;14.10;46.60;;;;;;5015943;28;20190;-50
2023/03/22 02:41:03;;;;;;;9.88;8.93;;;14.00;46.50;;;;;;5016133;28;20194;-52
2023/03/22 02:43:37;;;;;;;7.70;6.82;;;13.90;46.50;;;;;;5015848;28;20615;-50
2023/03/22 02:46:15;;;;;;;8.02;7.22;;;13.80;46.40;;;;;;5015855;28;20589;-53
2023/03/22 02:48:48;;;;;;;6.90;5.97;;;13.70;46.40;;;;;;5015959;28;20326;-50
2023/03/22 02:51:23;;;;;;;8.95;7.03;;;13.70;46.40;;;;;;5015639;28;20202;-53
2023/03/22 02:54:03;;;;;;;7.20;6.28;;;13.60;46.20;;;;;;5015724;28;20174;-52
2023/03/22 02:57:04;;;;;;;9.48;7.57;;;13.60;46.10;;;;;;5015779;28;20166;-51
2023/03/22 02:59:32;;;;;;;9.07;8.05;;;13.50;46.10;;;;;;5015578;28;20182;-52
2023/03/22 03:02:01;;;;;;;10.73;7.53;;;13.50;46.50;;;;;;5015736;28;20182;-53
2023/03/22 03:04:35;;;;;;;7.47;6.38;;;13.40;46.60;;;;;;5015444;28;20175;-50
2023/03/22 03:07:08;;;;;;;10.05;7.60;;;13.40;46.50;;;;;;5015164;28;20194;-50
2023/03/22 03:09:36;;;;;;;9.65;7.55;;;13.40;46.30;;;;;;5015696;28;20194;-53
2023/03/22 03:12:01;;;;;;;12.18;6.65;;;13.30;46.20;;;;;;5015487;28;20178;-54
2023/03/22 03:14:30;;;;;;;7.73;5.90;;;13.30;46.40;;;;;;5015292;28;20657;-50
2023/03/22 03:17:25;;;;;;;7.95;6.32;;;13.30;46.30;;;;;;5014919;28;20190;-52
2023/03/22 03:20:12;;;;;;;11.77;6.55;;;13.20;46.10;;;;;;5012046;28;20209;-51
2023/03/22 03:22:55;;;;;;;7.55;6.88;;;13.10;46.00;;;;;;5015308;28;20313;-51
2023/03/22 03:25:29;;;;;;;8.68;7.68;;;13.10;46.10;;;;;;5015018;28;20190;-51
2023/03/22 03:28:21;;;;;;;8.73;6.88;;;13.10;46.30;;;;;;5014880;28;20724;-51
2023/03/22 03:31:02;;;;;;;9.98;7.07;;;13.00;46.20;;;;;;5014886;28;20190;-53
2023/03/22 03:33:31;;;;;;;8.88;7.80;;;13.00;46.10;;;;;;5014972;28;20546;-51
2023/03/22 03:36:04;;;;;;;8.80;6.85;;;13.00;46.20;;;;;;5014681;28;20171;-49
2023/03/22 03:38:35;;;;;;;8.10;6.50;;;13.00;46.10;;;;;;5014705;28;20221;-52
2023/03/22 03:41:04;;;;;;;9.60;7.72;;;12.90;46.20;;;;;;5015115;28;20303;-52
2023/03/22 03:43:32;;;;;;;6.80;6.05;;;12.90;46.10;;;;;;5014999;28;20191;-50
2023/03/22 03:45:59;;;;;;;6.60;6.00;;;12.90;46.10;;;;;;5014616;28;20654;-52
2023/03/22 03:48:31;;;;;;;10.00;6.78;;;12.80;46.00;;;;;;5014432;28;20207;-52
2023/03/22 03:50:58;;;;;;;10.75;6.85;;;12.80;46.10;;;;;;5014531;28;20207;-49
2023/03/22 03:53:24;;;;;;;7.18;5.80;;;11.70;45.80;;;;;;5014724;28;20182;-51
2023/03/22 03:55:50;;;;;;;8.23;6.63;;;12.80;46.40;;;;;;5014455;28;20163;-53
2023/03/22 03:58:15;;;;;;;9.37;5.53;;;12.80;46.80;;;;;;5014488;28;20228;-50
2023/03/22 04:00:42;;;;;;;8.90;6.60;;;12.80;46.90;;;;;;5014738;28;20526;-52
2023/03/22 04:03:08;;;;;;;9.88;6.47;;;12.80;46.80;;;;;;5014438;28;20266;-52
2023/03/22 04:05:34;;;;;;;10.40;6.20;;;12.90;46.40;;;;;;5014663;28;20200;-49
2023/03/22 04:08:00;;;;;;;7.07;6.27;;;12.80;46.10;;;;;;5014096;28;20566;-49
2023/03/22 04:10:25;;;;;;;8.93;7.13;;;12.80;46.00;;;;;;5014469;28;20445;-52
2023/03/22 04:12:51;;;;;;;7.70;6.03;;;12.70;45.90;;;;;;5014270;28;20590;-50
2023/03/22 04:15:17;;;;;;;8.90;7.00;;;12.60;45.80;;;;;;5014348;28;20171;-50
2023/03/22 04:17:43;;;;;;;13.33;7.37;;;12.60;45.80;;;;;;5013849;28;20183;-52
2023/03/22 04:20:10;;;;;;;8.23;6.77;;;12.60;45.70;;;;;;5012811;28;20425;-52
2023/03/22 04:22:37;;;;;;;7.15;6.43;;;12.50;46.00;;;;;;5013966;28;20189;-50
2023/03/22 04:25:11;;;;;;;7.40;6.13;;;12.40;46.10;;;;;;5013711;28;20559;-52
2023/03/22 04:27:41;;;;;;;9.23;6.13;;;12.40;46.30;;;;;;5013656;28;20194;-52
2023/03/22 04:30:10;;;;;;;7.20;5.95;;;12.30;46.70;;;;;;5013859;28;20213;-52
2023/03/22 04:32:36;;;;;;;8.32;7.00;;;12.30;46.60;;;;;;5014094;28;20249;-51
2023/03/22 04:35:03;;;;;;;8.32;6.78;;;12.30;46.40;;;;;;5013713;28;20269;-50
2023/03/22 04:37:30;;;;;;;8.98;6.50;;;12.30;46.40;;;;;;5013340;28;20234;-52
2023/03/22 04:39:57;;;;;;;8.32;5.90;;;12.30;46.40;;;;;;5013947;28;20187;-51
2023/03/22 04:42:23;;;;;;;7.85;6.47;;;12.30;46.30;;;;;;5012747;28;20171;-52
2023/03/22 04:44:49;;;;;;;8.63;6.60;;;12.20;46.40;;;;;;5013619;28;20332;-52
2023/03/22 04:47:15;;;;;;;11.03;7.80;;;12.20;46.50;;;;;;5013126;28;20429;-51
2023/03/22 04:49:41;;;;;;;7.22;6.45;;;12.10;46.70;;;;;;5012952;28;20965;-52
2023/03/22 04:52:07;;;;;;;10.80;7.00;;;12.20;46.70;;;;;;5013593;28;20234;-52
2023/03/22 04:54:33;;;;;;;7.57;6.75;;;12.10;46.50;;;;;;5013399;28;20665;-52
2023/03/22 04:56:59;;;;;;;8.63;6.95;;;12.10;46.50;;;;;;5013199;28;20686;-52
2023/03/22 04:59:25;;;;;;;6.90;6.20;;;12.10;46.70;;;;;;5013335;28;20173;-52
2023/03/22 05:01:51;;;;;;;8.38;5.80;;;12.10;46.50;;;;;;5013596;28;20175;-51
2023/03/22 05:04:18;;;;;;;7.33;6.50;;;12.10;46.50;;;;;;5013227;28;20178;-52
2023/03/22 05:06:45;;;;;;;9.00;6.32;;;12.10;46.70;;;;;;5013097;28;20273;-51
2023/03/22 05:09:12;;;;;;;11.50;7.45;;;12.10;46.50;;;;;;5013387;28;20282;-53
2023/03/22 05:11:39;;;;;;;8.48;6.70;;;12.10;46.60;;;;;;5013309;28;20202;-50
2023/03/22 05:14:06;;;;;;;8.20;6.00;;;12.00;46.50;;;;;;5013242;28;20182;-50
2023/03/22 05:16:33;;;;;;;6.60;5.65;;;12.10;46.50;;;;;;5011523;28;20179;-53
2023/03/22 05:19:01;;;;;;;9.10;6.85;;;12.10;46.50;;;;;;5013217;28;20209;-51
2023/03/22 05:21:28;;;;;;;8.65;5.50;;;12.00;46.60;;;;;;5013194;28;20258;-51
2023/03/22 05:23:55;;;;;;;6.95;5.90;;;12.10;46.70;;;;;;5013009;28;20178;-51
2023/03/22 05:26:23;;;;;;;12.80;6.38;;;12.00;46.80;;;;;;5012639;28;20269;-50
2023/03/22 05:28:50;;;;;;;8.52;7.68;;;12.10;46.90;;;;;;5013071;28;20198;-50
2023/03/22 05:31:16;;;;;;;7.38;6.63;;;12.20;47.10;;;;;;5012752;28;20585;-53
2023/03/22 05:33:42;;;;;;;8.05;5.93;;;12.20;47.20;;;;;;5012610;28;20175;-53
2023/03/22 05:36:10;;;;;;;8.98;5.30;;;12.30;47.30;;;;;;5012690;28;20171;-51
2023/03/22 05:38:36;;;;;;;7.57;5.38;;;12.30;47.20;;;;;;5012938;28;20547;-51
2023/03/22 05:41:02;;;;;;;7.60;5.75;;;12.40;47.30;;;;;;5012748;28;20179;-52
2023/03/22 05:43:28;;;;;;;8.30;5.50;;;12.50;47.40;;;;;;5011525;28;20265;-53
2023/03/22 05:45:54;;;;;;;10.83;6.50;;;12.50;47.20;;;;;;5012632;28;20914;-49
2023/03/22 05:48:20;;;;;;;7.17;6.33;;;12.60;47.40;;;;;;5012415;28;20249;-50
2023/03/22 05:50:45;;;;;;;7.77;5.50;;;12.70;47.80;;;;;;5012729;28;20558;-53
2023/03/22 05:53:11;;;;;;;7.93;6.37;;;12.80;47.80;;;;;;5012442;28;20810;-50
2023/03/22 05:55:37;;;;;;;7.33;6.10;;;12.80;48.00;;;;;;5012331;28;20174;-50
2023/03/22 05:58:03;;;;;;;7.13;5.63;;;12.90;48.00;;;;;;5012482;28;20233;-53
2023/03/22 06:00:34;;;;;;;9.20;6.72;;;13.00;48.00;;;;;;5011523;28;20195;-50
2023/03/22 06:03:02;;;;;;;8.07;5.70;;;13.10;48.10;;;;;;5012195;28;20183;-53
2023/03/22 06:05:30;;;;;;;7.93;6.43;;;13.20;48.20;;;;;;5012494;28;20194;-53
2023/03/22 06:07:59;;;;;;;8.30;6.43;;;13.30;48.40;;;;;;5012191;28;20206;-52
2023/03/22 06:10:25;;;;;;;6.85;6.15;;;13.40;48.20;;;;;;5012467;28;20222;-50
2023/03/22 06:12:52;;;;;;;7.35;6.63;;;13.40;48.20;;;;;;5012255;28;20683;-52
2023/03/22 06:15:18;;;;;;;11.13;7.78;;;13.50;48.20;;;;;;5012303;28;20182;-52
2023/03/22 06:17:44;;;;;;;8.70;6.90;;;13.60;48.20;;;;;;5011891;28;20813;-50
2023/03/22 06:20:12;;;;;;;9.00;6.63;;;13.70;48.30;;;;;;5012241;28;20839;-52
2023/03/22 06:22:38;;;;;;;10.77;7.95;;;13.70;48.20;;;;;;5012469;28;20178;-52
2023/03/22 06:25:06;;;;;;;9.93;8.32;;;13.80;48.20;;;;;;5012114;28;20174;-50
2023/03/22 06:27:32;;;;;;;14.85;9.20;;;13.80;48.20;;;;;;5011920;28;20264;-52
2023/03/22 06:29:58;;;;;;;9.98;8.80;;;13.90;48.20;;;;;;5011847;28;20201;-52
2023/03/22 06:32:25;;;;;;;12.03;7.30;;;14.00;48.20;;;;;;5012304;28;20175;-50
2023/03/22 06:34:52;;;;;;;12.13;9.18;;;14.00;48.10;;;;;;5011972;28;20412;-50
2023/03/22 06:37:18;;;;;;;10.65;8.95;;;14.10;48.20;;;;;;5011845;28;20261;-52
2023/03/22 06:39:43;;;;;;;17.23;10.40;;;14.20;48.10;;;;;;5012031;28;20254;-51
2023/03/22 06:42:09;;;;;;;12.13;10.80;;;14.30;48.00;;;;;;5012039;28;20262;-51
2023/03/22 06:44:35;;;;;;;16.20;9.20;;;14.40;47.90;;;;;;5011859;28;20170;-53
2023/03/22 06:47:02;;;;;;;13.93;10.38;;;14.50;48.00;;;;;;5011573;28;21008;-50
2023/03/22 06:49:28;;;;;;;12.60;10.68;;;14.60;47.90;;;;;;5012028;28;20202;-52
2023/03/22 06:51:54;;;;;;;10.50;8.00;;;14.70;48.10;;;;;;5011919;28;20662;-50
2023/03/22 06:54:20;;;;;;;10.20;9.20;;;14.70;47.90;;;;;;5011881;28;20413;-50
2023/03/22 06:56:46;;;;;;;10.60;8.73;;;14.90;48.10;;;;;;5011615;28;20452;-51
2023/03/22 06:59:11;;;;;;;13.23;8.93;;;14.90;48.00;;;;;;5011721;28;20237;-53
2023/03/22 07:01:37;;;;;;;11.23;7.93;;;15.00;47.80;;;;;;5011711;28;20254;-50
2023/03/22 07:04:03;;;;;;;10.87;8.30;;;15.10;47.80;;;;;;5012282;28;20693;-52
2023/03/22 07:06:31;;;;;;;10.17;7.53;;;15.20;47.80;;;;;;5011494;28;20178;-51
2023/03/22 07:08:57;;;;;;;10.75;7.53;;;15.30;47.80;;;;;;5011998;28;20444;-51
2023/03/22 07:11:24;;;;;;;9.38;7.93;;;15.40;47.70;;;;;;5011541;28;20740;-53
2023/03/22 07:13:51;;;;;;;9.45;7.50;;;15.50;47.80;;;;;;5015211;28;20187;-50
2023/03/22 07:16:17;;;;;;;12.25;8.63;;;15.50;47.30;;;;;;5015051;28;20170;-51
2023/03/22 07:18:43;;;;;;;9.85;7.70;;;15.50;46.70;;;;;;5015358;28;20198;-52
2023/03/22 07:21:09;;;;;;;9.43;7.17;;;15.50;46.40;;;;;;5015122;28;20179;-52
2023/03/22 07:23:35;;;;;;;8.53;6.63;;;15.50;46.60;;;;;;5015394;28;20179;-53
2023/03/22 07:26:01;;;;;;;8.83;6.33;;;15.60;45.90;;;;;;5015010;28;20949;-53
2023/03/22 07:28:27;;;;;;;10.83;7.90;;;15.60;45.60;;;;;;5014740;28;20194;-50
2023/03/22 07:31:06;;;;;;;9.23;6.63;;;15.60;45.20;;;;;;5014864;28;20449;-50
2023/03/22 07:33:32;;;;;;;8.30;6.95;;;15.60;45.20;;;;;;5014913;28;20894;-53
2023/03/22 07:35:58;;;;;;;8.83;6.47;;;15.70;45.80;;;;;;5015179;28;20183;-50
2023/03/22 07:38:24;;;;;;;8.23;6.47;;;15.70;46.10;;;;;;5014611;28;20465;-53
2023/03/22 07:40:53;;;;;;;9.20;7.20;;;15.90;45.50;;;;;;5014950;28;20277;-53
2023/03/22 07:43:20;;;;;;;9.93;6.57;;;15.90;45.40;;;;;;5014763;28;20182;-50
2023/03/22 07:45:48;;;;;;;9.77;6.80;;;16.10;45.80;;;;;;5014700;28;20669;-51
2023/03/22 07:48:14;;;;;;;8.88;6.90;;;16.30;46.10;;;;;;5014668;28;20202;-53
2023/03/22 07:50:40;;;;;;;12.03;7.27;;;16.50;45.50;;;;;;5014552;28;20643;-50
2023/03/22 07:53:06;;;;;;;14.32;7.18;;;16.70;44.50;;;;;;5014616;28;20174;-50
2023/03/22 07:55:32;;;;;;;7.70;6.40;;;16.80;44.60;;;;;;5014450;28;20378;-52
2023/03/22 07:57:58;;;;;;;9.43;6.10;;;17.00;43.00;;;;;;5014456;28;20437;-52
2023/03/22 08:00:24;;;;;;;7.80;6.67;;;17.10;42.60;;;;;;5014490;28;20927;-53
2023/03/22 08:02:49;;;;;;;8.83;6.60;;;17.20;41.80;;;;;;5014513;28;20179;-53
2023/03/22 08:05:15;;;;;;;8.17;6.27;;;17.30;40.80;;;;;;5014604;28;20413;-53
2023/03/22 08:07:41;;;;;;;6.55;5.13;;;17.40;40.80;;;;;;5014342;28;20202;-50
2023/03/22 08:10:07;;;;;;;10.40;7.97;;;17.50;40.00;;;;;;5014096;28;20209;-53
2023/03/22 08:12:33;;;;;;;6.28;5.65;;;17.50;39.40;;;;;;5014701;28;20408;-54
2023/03/22 08:15:00;;;;;;;9.52;6.40;;;17.60;39.50;;;;;;5014224;28;20206;-50
2023/03/22 08:17:26;;;;;;;5.82;5.22;;;17.60;39.60;;;;;;5014007;28;20341;-53
2023/03/22 08:19:54;;;;;;;7.63;6.10;;;17.70;40.60;;;;;;5014080;28;20286;-51
2023/03/22 08:22:24;;;;;;;8.23;7.00;;;17.90;40.40;;;;;;5013537;28;20257;-53
2023/03/22 08:24:53;;;;;;;6.28;5.38;;;18.00;40.20;;;;;;5013491;28;20660;-53
2023/03/22 08:27:19;;;;;;;6.95;5.55;;;18.10;40.00;;;;;;5013937;28;20771;-51
2023/03/22 08:29:47;;;;;;;7.38;5.93;;;18.10;39.30;;;;;;5013823;28;20202;-50
2023/03/22 08:32:13;;;;;;;6.10;5.50;;;18.20;38.90;;;;;;5014512;28;20171;-53
2023/03/22 08:34:41;;;;;;;8.35;5.10;;;18.20;39.30;;;;;;5013950;28;20171;-52
2023/03/22 08:37:08;;;;;;;7.45;5.82;;;18.40;38.50;;;;;;5013808;28;20671;-51
2023/03/22 08:39:33;;;;;;;7.97;5.22;;;18.30;37.70;;;;;;5013980;28;20183;-51
2023/03/22 08:41:59;;;;;;;6.07;4.27;;;18.40;38.40;;;;;;5013730;28;20257;-54
2023/03/22 08:44:26;;;;;;;4.33;3.60;;;18.40;37.90;;;;;;5013614;28;20497;-50
2023/03/22 08:46:52;;;;;;;5.07;4.00;;;18.50;36.90;;;;;;5013334;28;20422;-51
2023/03/22 08:49:18;;;;;;;5.55;3.65;;;18.50;36.70;;;;;;5013460;28;20228;-54
2023/03/22 08:51:44;;;;;;;5.80;3.90;;;18.60;35.90;;;;;;5013993;28;20163;-52
2023/03/22 08:54:10;;;;;;;8.02;4.03;;;18.60;35.30;;;;;;5013692;28;20171;-51
2023/03/22 08:56:40;;;;;;;9.35;3.63;;;18.70;37.10;;;;;;5013095;28;20171;-51
2023/03/22 08:59:08;;;;;;;8.20;3.90;;;18.80;36.40;;;;;;5013609;28;20159;-51
2023/03/22 09:01:35;;;;;;;3.75;3.30;;;18.60;34.40;;;;;;5013268;28;20190;-54
2023/03/22 09:04:01;;;;;;;5.45;3.78;;;18.40;35.20;;;;;;5013071;28;20241;-53
2023/03/22 09:06:27;;;;;;;9.48;4.10;;;18.40;35.40;;;;;;5012935;28;20193;-50
2023/03/22 09:08:53;;;;;;;8.67;4.33;;;18.40;34.90;;;;;;5013394;28;20191;-53
2023/03/22 09:11:20;;;;;;;7.50;3.80;;;18.40;35.90;;;;;;5013174;28;20210;-52
2023/03/22 09:13:46;;;;;;;3.88;3.45;;;18.50;35.80;;;;;;5013398;28;20190;-51
2023/03/22 09:16:12;;;;;;;7.55;3.83;;;18.60;35.80;;;;;;5012843;28;20167;-52
2023/03/22 09:18:39;;;;;;;5.70;3.90;;;18.80;35.40;;;;;;5012873;28;20189;-51
2023/03/22 09:21:06;;;;;;;8.30;3.50;;;18.90;34.80;;;;;;5013015;28;20476;-51
2023/03/22 09:23:34;;;;;;;4.90;3.05;;;19.00;35.40;;;;;;5013134;28;20305;-54
2023/03/22 09:26:01;;;;;;;5.03;3.13;;;19.10;34.20;;;;;;5012913;28;20342;-52
2023/03/22 09:28:27;;;;;;;3.90;3.15;;;19.20;34.80;;;;;;5012514;28;20595;-52
2023/03/22 09:30:53;;;;;;;3.17;2.50;;;19.30;34.00;;;;;;5012823;28;20222;-54
2023/03/22 09:33:19;;;;;;;3.90;2.37;;;19.40;32.70;;;;;;5012718;28;20214;-51
2023/03/22 09:35:45;;;;;;;2.93;2.20;;;19.60;33.20;;;;;;5012750;28;20417;-53
2023/03/22 09:38:11;;;;;;;4.33;2.73;;;19.70;32.70;;;;;;5012644;28;20428;-53
2023/03/22 09:40:49;;;;;;;4.47;2.57;;;19.90;33.30;;;;;;5012815;28;20175;-50
2023/03/22 09:43:15;;;;;;;5.65;2.20;;;20.10;33.40;;;;;;5012671;28;20405;-53
2023/03/22 09:45:45;;;;;;;3.10;1.90;;;20.30;32.50;;;;;;5012497;28;20717;-53
2023/03/22 09:48:21;;;;;;;3.72;2.00;;;20.40;31.00;;;;;;5012626;28;20243;-51
2023/03/22 09:50:51;;;;;;;3.25;2.00;;;20.40;33.40;;;;;;5012503;28;20194;-52
2023/03/22 09:53:17;;;;;;;2.13;1.70;;;20.60;31.60;;;;;;5012491;28;20596;-53
2023/03/22 09:55:55;;;;;;;2.60;1.65;;;20.70;31.20;;;;;;5012767;28;20179;-53
2023/03/22 09:58:30;;;;;;;2.60;1.55;;;20.80;30.70;;;;;;5012109;28;20201;-51
2023/03/22 10:01:01;;;;;;;1.90;1.50;;;20.80;30.50;;;;;;5012659;28;20674;-50
2023/03/22 10:04:00;;;;;;;2.63;1.90;;;21.10;31.30;;;;;;5012689;28;20170;-53
2023/03/22 10:06:27;;;;;;;2.65;1.70;;;21.30;30.20;;;;;;5012252;28;20197;-50
2023/03/22 10:08:58;;;;;;;1.75;1.25;;;21.40;30.50;;;;;;5012223;28;20195;-51
2023/03/22 10:11:39;;;;;;;10.57;2.10;;;21.60;29.50;;;;;;5012532;28;20240;-53
2023/03/22 10:14:24;;;;;;;4.75;2.08;;;21.70;29.10;;;;;;5012696;28;20389;-50
2023/03/22 10:16:52;;;;;;;3.40;1.70;;;21.90;28.20;;;;;;5012259;28;20190;-53
2023/03/22 10:19:29;;;;;;;2.50;1.70;;;21.90;29.10;;;;;;5012268;28;21243;-50
2023/03/22 10:21:58;;;;;;;5.43;2.30;;;21.50;27.80;;;;;;5012347;28;20381;-50
2023/03/22 10:24:37;;;;;;;3.10;2.07;;;21.40;29.80;;;;;;5011170;28;20402;-53
2023/03/22 10:27:10;;;;;;;5.10;2.33;;;21.50;29.00;;;;;;5011850;28;20988;-53
2023/03/22 10:29:43;;;;;;;6.90;1.80;;;21.50;30.10;;;;;;5012104;28;20453;-51
2023/03/22 10:32:18;;;;;;;3.80;1.63;;;21.70;29.60;;;;;;5012550;28;20424;-52
2023/03/22 10:34:45;;;;;;;2.50;2.00;;;21.80;28.40;;;;;;5012264;28;20409;-54
2023/03/22 10:37:18;;;;;;;3.97;2.20;;;21.70;27.10;;;;;;5011949;28;20430;-51
2023/03/22 10:39:48;;;;;;;4.90;1.97;;;21.70;27.40;;;;;;5012016;28;20937;-54
2023/03/22 10:42:22;;;;;;;2.63;2.07;;;21.50;27.50;;;;;;5012239;28;20386;-53
2023/03/22 10:44:59;;;;;;;2.50;2.07;;;21.50;27.30;;;;;;5011986;28;20396;-51
2023/03/22 10:47:41;;;;;;;3.63;2.20;;;21.40;28.80;;;;;;5014750;28;20429;-53
2023/03/22 10:50:19;;;;;;;2.90;1.47;;;21.50;29.10;;;;;;5015886;28;20503;-50
2023/03/22 10:52:58;;;;;;;2.53;1.63;;;21.40;27.60;;;;;;5015740;28;20393;-50
2023/03/22 10:55:25;;;;;;;5.40;2.10;;;21.40;28.10;;;;;;5015814;28;20800;-55
2023/03/22 10:58:15;;;;;;;6.00;2.20;;;21.30;27.60;;;;;;5015660;28;20524;-51
2023/03/22 11:00:53;;;;;;;1.80;1.50;;;21.00;27.70;;;;;;5015592;28;20186;-51
2023/03/22 11:03:33;;;;;;;3.25;1.67;;;21.00;28.00;;;;;;5015856;28;20431;-51
2023/03/22 11:06:40;;;;;;;2.60;1.57;;;21.10;28.90;;;;;;5015457;28;20174;-54
2023/03/22 11:09:16;;;;;;;2.27;1.60;;;21.30;26.40;;;;;;4993378;28;20973;-52
2023/03/22 11:11:57;;;;;;;2.27;1.63;;;21.60;28.50;;;;;;4993524;28;20886;-51
2023/03/22 11:14:40;;;;;;;4.60;1.87;;;21.70;26.30;;;;;;4993509;28;20406;-54
2023/03/22 11:17:11;;;;;;;3.00;1.70;;;21.70;26.80;;;;;;4993173;28;20422;-52
2023/03/22 11:19:50;;;;;;;3.33;2.53;;;21.80;28.30;;;;;;4993278;28;20402;-54
2023/03/22 11:22:30;;;;;;;5.83;2.70;;;22.10;28.60;;;;;;4993293;28;20410;-51
2023/03/22 11:24:57;;;;;;;3.33;2.27;;;22.60;26.40;;;;;;4993155;28;20771;-53
2023/03/22 11:27:26;;;;;;;5.73;2.70;;;22.90;26.70;;;;;;4992920;28;20433;-52
2023/03/22 11:29:57;;;;;;;2.53;1.70;;;23.10;26.70;;;;;;4993104;28;20818;-52
2023/03/22 11:32:31;;;;;;;2.13;1.43;;;23.20;25.60;;;;;;4993130;28;20385;-54
2023/03/22 11:35:00;;;;;;;3.80;2.07;;;23.20;25.20;;;;;;4993217;28;20419;-51
2023/03/22 11:37:27;;;;;;;2.40;1.53;;;23.40;27.50;;;;;;4976901;28;20877;-51
2023/03/22 11:39:59;;;;;;;4.57;2.10;;;23.70;25.00;;;;;;5004435;28;20420;-54
2023/03/22 11:42:26;;;;;;;2.67;1.70;;;24.00;23.90;;;;;;5014880;28;20529;-51
2023/03/22 11:44:53;;;;;;;2.50;1.60;;;24.10;24.60;;;;;;5013619;28;20460;-50
2023/03/22 11:47:19;;;;;;;3.93;1.37;;;24.10;25.00;;;;;;5014184;28;20800;-52
2023/03/22 11:49:49;;;;;;;3.90;1.93;;;24.20;25.70;;;;;;5014136;28;20532;-51
2023/03/22 11:52:24;;;;;;;2.17;1.10;;;24.50;24.40;;;;;;5014590;28;20163;-51
2023/03/22 11:54:51;;;;;;;3.53;1.93;;;24.50;24.50;;;;;;5014567;28;20410;-53
2023/03/22 11:57:23;;;;;;;2.57;1.67;;;24.40;24.90;;;;;;5014235;28;20429;-54
2023/03/22 12:00:19;;;;;;;5.03;2.37;;;24.50;23.50;;;;;;5013409;28;20441;-50
2023/03/22 12:02:53;;;;;;;3.73;1.70;;;24.40;23.00;;;;;;5014833;28;20396;-51
2023/03/22 12:05:26;;;;;;;2.43;1.57;;;24.40;23.50;;;;;;5014596;28;20385;-53
2023/03/22 12:08:16;;;;;;;3.07;1.93;;;24.60;25.20;;;;;;5014251;28;20429;-51
2023/03/22 12:10:48;;;;;;;11.00;3.57;;;24.80;23.80;;;;;;5014334;28;20982;-53
2023/03/22 12:13:17;;;;;;;1.80;1.10;;;24.90;23.50;;;;;;5014278;28;20913;-51
2023/03/22 12:15:50;;;;;;;5.17;1.73;;;24.90;22.70;;;;;;5014145;28;20417;-53
2023/03/22 12:18:22;;;;;;;4.30;1.57;;;24.70;23.10;;;;;;5014087;28;20426;-51
2023/03/22 12:20:59;;;;;;;3.53;1.77;;;24.60;22.00;;;;;;5014218;28;20398;-52
2023/03/22 12:23:31;;;;;;;2.33;1.50;;;24.40;23.10;;;;;;5014081;28;20406;-50
2023/03/22 12:26:12;;;;;;;2.30;1.80;;;24.20;23.10;;;;;;5013880;28;20444;-53
2023/03/22 12:28:49;;;;;;;2.90;1.70;;;24.00;23.10;;;;;;5013963;28;20421;-50
2023/03/22 12:31:35;;;;;;;2.23;1.17;;;24.00;24.90;;;;;;5014132;28;20437;-53
2023/03/22 12:34:17;;;;;;;2.90;1.63;;;24.20;24.80;;;;;;5014175;28;20382;-52
2023/03/22 12:36:53;;;;;;;2.00;1.40;;;24.40;23.10;;;;;;5013448;28;20429;-53
2023/03/22 12:39:36;;;;;;;2.13;1.50;;;24.30;22.60;;;;;;5013979;28;20397;-51
2023/03/22 12:42:16;;;;;;;2.00;1.33;;;24.30;23.20;;;;;;5013794;28;20394;-53
2023/03/22 12:44:44;;;;;;;2.43;1.37;;;24.30;22.30;;;;;;5013665;28;20821;-52
2023/03/22 12:47:40;;;;;;;3.23;1.33;;;24.30;22.50;;;;;;5013257;28;20993;-53
2023/03/22 12:50:20;;;;;;;2.80;1.60;;;24.10;23.60;;;;;;5005450;28;20453;-50
2023/03/22 12:52:57;;;;;;;3.53;2.03;;;24.10;23.70;;;;;;5013877;28;20453;-53
2023/03/22 12:55:24;;;;;;;2.43;1.70;;;24.30;24.30;;;;;;5013447;28;20409;-53
2023/03/22 12:57:53;;;;;;;8.60;2.07;;;24.40;22.60;;;;;;5013439;28;20524;-50
2023/03/22 13:00:40;;;;;;;6.20;2.07;;;24.40;24.00;;;;;;5013449;28;20438;-53
2023/03/22 13:03:18;;;;;;;2.90;2.10;;;24.60;24.00;;;;;;5013028;28;20836;-54
2023/03/22 13:05:49;;;;;;;3.30;1.80;;;24.90;23.00;;;;;;5013184;28;20418;-51
2023/03/22 13:08:20;;;;;;;4.87;2.07;;;25.00;24.00;;;;;;5012864;28;20869;-51
2023/03/22 13:11:21;;;;;;;3.47;1.80;;;25.00;22.40;;;;;;5013068;28;20498;-53
2023/03/22 13:13:46;;;;;;;4.20;2.30;;;24.90;22.50;;;;;;5013171;28;20386;-52
2023/03/22 13:16:16;;;;;;;3.27;1.80;;;24.80;22.20;;;;;;5012743;28;20416;-50
2023/03/22 13:18:42;;;;;;;2.80;1.83;;;24.90;22.70;;;;;;5013204;28;20198;-52
2023/03/22 13:21:11;;;;;;;2.10;1.63;;;24.90;21.00;;;;;;5013289;28;20759;-54
2023/03/22 13:23:52;;;;;;;2.73;2.20;;;24.80;21.50;;;;;;5013274;28;20206;-51
2023/03/22 13:26:18;;;;;;;3.10;2.40;;;24.80;19.70;;;;;;5012634;28;20445;-52